Flight Track Log - Related Links

Times and Time Zones

All times are in EDT time to prevent confusion due to time zone crossing. See the GJS6221 flight status page for this flight to view local times or setup timezone preferences in your user account.

Time Position Orientation Groundspeed Altitude Reporting Facility
EDT Latitude Longitude Course Direction KTS MPH feet Rate Location/Type
Wed 12:51:36 PM 40.7167 -73.8333 49° Northeast 190 219 3,300  Level New York TRACON
Wed 12:53:14 PM 40.7714 -73.7500 49° Northeast 206 237 7,000 2,392 Climbing Boston Center
Wed 12:54:14 PM 40.8367 -73.7047 28° Northeast 229 264 9,600 2,650 Climbing Boston Center
Wed 12:55:14 PM 40.9119 -73.6594 24° Northeast 262 302 12,300 2,300 Climbing Boston Center
Wed 12:56:14 PM 40.9939 -73.6089 25° Northeast 292 336 14,200 2,050 Climbing Boston Center
Wed 12:57:14 PM 41.0903 -73.5528 24° Northeast 332 382 16,400 2,000 Climbing Boston Center
Wed 12:58:14 PM 41.1847 -73.4936 25° Northeast 358 412 18,200 1,500 Climbing Boston Center
Wed 12:59:38 PM 41.3000 -73.4264 24° Northeast 368 423 20,000 1,667 Climbing Boston Center
Wed 01:00:38 PM 41.4211 -73.3731 18° North 373 429 22,200 2,000 Climbing Boston Center
Wed 01:01:38 PM 41.5297 -73.3689 North 373 429 24,000 1,700 Climbing Boston Center
Wed 01:02:38 PM 41.6233 -73.3675 North 373 429 25,600 1,450 Climbing Boston Center
Wed 01:03:38 PM 41.7319 -73.3581 North 373 429 26,900 700 Climbing Boston Center
Wed 01:04:38 PM 41.8444 -73.3486 North 388 447 27,000 50 Climbing Boston Center
Wed 01:05:38 PM 41.9592 -73.3447 North 399 459 27,000  Level Boston Center
Wed 01:06:38 PM 42.0717 -73.3350 North 406 467 27,000  Level Boston Center
Wed 01:07:38 PM 42.1844 -73.3256 North 406 467 27,000  Level Boston Center
Wed 01:08:38 PM 42.2992 -73.3186 North 406 467 27,000  Level Boston Center
Wed 01:09:38 PM 42.4242 -73.2981 North 406 467 27,000  Level Boston Center
Wed 01:10:38 PM 42.5369 -73.2883 North 406 467 27,000  Level Boston Center
Wed 01:11:38 PM 42.6514 -73.2956 357° North 406 467 27,000  Level Boston Center
Wed 01:12:38 PM 42.7619 -73.2856 North 406 467 27,000  Level Boston Center
Wed 01:13:38 PM 42.8747 -73.2758 North 406 467 27,000  Level Boston Center
Wed 01:14:38 PM 42.9872 -73.2689 North 401 461 27,000 -650 Level Boston Center
Wed 01:15:38 PM 43.0997 -73.2589 North 406 467 25,700 -1,400 Descending Boston Center
Wed 01:16:38 PM 43.2125 -73.2519 North 406 467 24,200 -773 Descending Boston Center
Wed 01:17:50 PM 43.3228 -73.2419 North 406 467 24,000 -636 Descending Boston Center
Wed 01:18:50 PM 43.4417 -73.2322 North 399 459 22,800 -1,350 Descending Boston Center
Wed 01:19:50 PM 43.5522 -73.2222 North 394 453 21,300 -1,364 Descending Boston Center
Wed 01:21:02 PM 43.6586 -73.2150 North 388 447 19,800 -1,591 Descending Boston Center
Wed 01:22:02 PM 43.7961 -73.2053 North 383 441 17,800 -1,550 Descending Boston Center
Wed 01:23:02 PM 43.8983 -73.1978 North 377 434 16,700 -1,300 Descending Boston Center
Wed 01:24:02 PM 43.9983 -73.1906 North 367 422 15,200 -1,500 Descending Boston Center
Wed 01:25:02 PM 44.0986 -73.1831 North 362 417 13,700 -1,500 Descending Boston Center
Wed 01:26:02 PM 44.1758 -73.1231 29° Northeast 318 366 12,200 -1,700 Descending Boston Center
Wed 01:27:02 PM 44.2328 -73.0369 47° Northeast 301 346 10,300 -2,100 Descending Boston Center
Wed 01:28:02 PM 44.2872 -72.9650 43° Northeast 276 318 8,000 -2,050 Descending Boston Center
Wed 01:29:02 PM 44.3581 -72.9744 355° North 237 273 6,200 -1,455 Descending Boston Center
Wed 01:30:14 PM 44.4014 -73.0328 316° Northwest 224 258 4,800 -1,727 Descending Boston Center
Wed 01:31:14 PM 44.4303 -73.1000 301° West 176 203 2,400 -2,100 Descending Boston Center
Wed 01:32:14 PM 44.4572 -73.1322 320° Northwest 141 162 600 -1,800 Descending Boston Center

Login

Don't have an account? Register now (free) for customized features, flight alerts, and more!